Rivolto Air Base

LIPI · Friuli Venezia Giulia, 意大利

罗盘
风向 的 风向 090° Rivolto Air Base 6/24
风: 4 kt, 2 beaufort

3 kt

2 kt
改变
0 ft 1.000 2.000 3.000 4.000 5.000
Cloud Cloud Cloud Cloud
SCT 2.200
Cloud Cloud Cloud Cloud Cloud Cloud
BKN 5.000
METAR LIPI 231155Z 09004KT 8000 SCT022 BKN050 11/08 Q0998

METAR Rivolto Air Base - LIPI

Rivolto Air Base是,意大利中的中型机场。 该机场位于纬度45,97940和经度13,04920。 该机场有一条跑道: 6/24. 本场的ICAO机场代码为LIPI。 机场在Milano FIR中。

该航空气象观测是针对Rivolto Air Base在2024年2月23日 12:55, 当地时间进行的。

机场观察

风向为090°,速度为4 kt。

可见度为8 km。

有疏云,零星散落的云朵在2.200 ft的高度 和 碎云在5.000 ft的高度。 破损或更高的上限为5.000 ft。

温度和风寒是11 °C。 露点为8 °C,相对湿度为82%。 海平面上的气压为998 hPa (QNH)。

白天

今天,太阳从06:57升起,在17:44降落。 这适用于Rivolto Air Base,世界夏令时可能有所不同。 当地时间与世界标准时间之间的时差为+1 小时。 当前,没有夏令时有效。

公司介绍

我们没有关于这个机场的公司信息。

体会

到Vliegles.nl去找飞行课程,跳伞和其他飞行体验。 浏览页面,了解Rivolto Air Base附近所有可用的活动。 你也可以使用搜索功能来寻找你所在地附近的特定飞行课程、跳伞或其他飞行体验。

跑道

Id 标题 侧风 逆风 侧风 %
6/24 060°-240° 2 kt 3 kt 50 %

逆风成分最大的方向会被突出显示,并用于横风计算。 这并不一定意味着这个方向在使用。

乌云

2.200 ft SCT 疏云,零星散落的云朵
5.000 ft BKN 碎云

温度 & 天气

温度 11 °C
露点 8 °C
相对湿度 82%
Kp-index 0 (0-9)

白天

日出
06:57
中午
12:21
日落
17:44 (3:59)

小工具

你想在你的网站上有一个关于Rivolto Air Base的当前航空天气(METAR)的小部件吗?

显示HTML代码
?>